createdAt,value
2023-03-06T00:01:48.672Z,98.40
2023-03-06T00:04:15.724Z,95.55
2023-03-06T00:06:42.497Z,95.75
2023-03-06T00:09:09.906Z,96.25
2023-03-06T00:11:36.817Z,96.28
2023-03-06T00:14:05.036Z,95.45
2023-03-06T00:16:31.923Z,95.10
2023-03-06T00:18:58.765Z,95.38
2023-03-06T00:21:25.554Z,94.75
2023-03-06T00:23:52.358Z,95.72
2023-03-06T00:26:19.143Z,95.82
2023-03-06T00:28:46.052Z,97.22
2023-03-06T00:31:14.309Z,95.43
2023-03-06T00:33:42.262Z,95.20
2023-03-06T00:36:09.444Z,94.85
2023-03-06T00:38:37.264Z,95.15
2023-03-06T00:41:08.479Z,95.95
2023-03-06T00:43:35.349Z,95.72
2023-03-06T00:46:02.265Z,94.88
2023-03-06T00:48:30.459Z,94.75
2023-03-06T00:50:57.258Z,96.43
2023-03-06T00:53:24.246Z,95.35
2023-03-06T00:55:51.376Z,95.03
2023-03-06T00:58:18.290Z,94.72
2023-03-06T01:00:45.692Z,94.70
2023-03-06T01:03:12.675Z,95.32
2023-03-06T01:05:41.123Z,95.35
2023-03-06T01:08:08.861Z,95.85
2023-03-06T01:10:38.949Z,94.80
2023-03-06T01:13:06.073Z,95.70
2023-03-06T01:15:33.072Z,95.63
2023-03-06T01:18:00.216Z,95.70
2023-03-06T01:20:27.240Z,95.15
2023-03-06T01:22:56.632Z,95.32
2023-03-06T01:25:25.033Z,95.18
2023-03-06T01:27:53.052Z,95.43
2023-03-06T01:30:20.640Z,95.00
2023-03-06T01:32:48.295Z,95.20
2023-03-06T01:35:15.190Z,94.93
2023-03-06T01:37:42.220Z,95.13
2023-03-06T01:40:12.536Z,95.85
2023-03-06T01:42:40.240Z,94.95
2023-03-06T01:45:29.137Z,95.03
2023-03-06T01:47:56.113Z,95.07
2023-03-06T01:50:23.126Z,94.43
2023-03-06T01:52:52.994Z,95.15
2023-03-06T01:57:55.007Z,95.05
2023-03-06T02:00:25.050Z,95.75
2023-03-06T02:02:54.961Z,94.55
2023-03-06T02:05:22.273Z,95.55
2023-03-06T02:07:50.729Z,96.28
2023-03-06T02:10:18.771Z,95.35
2023-03-06T02:12:49.279Z,94.97
2023-03-06T02:15:18.820Z,95.80
2023-03-06T02:17:47.945Z,96.93
2023-03-06T02:20:24.985Z,95.40
2023-03-06T02:22:59.632Z,95.60
2023-03-06T02:25:36.236Z,95.72
2023-03-06T02:28:04.462Z,95.82
2023-03-06T02:30:31.863Z,95.90
2023-03-06T02:33:00.827Z,95.32
2023-03-06T02:35:30.189Z,95.38
2023-03-06T02:37:59.769Z,95.78
2023-03-06T02:40:26.699Z,95.85
2023-03-06T02:42:57.475Z,96.07
2023-03-06T02:45:31.957Z,96.13
2023-03-06T02:47:58.798Z,95.97
2023-03-06T02:50:25.798Z,95.60
2023-03-06T02:52:52.652Z,95.53
2023-03-06T02:55:19.468Z,95.40
2023-03-06T02:57:46.593Z,95.50
2023-03-06T03:00:15.830Z,95.40
2023-03-06T03:02:44.031Z,95.60
2023-03-06T03:05:10.826Z,96.35
2023-03-06T03:07:41.668Z,96.03
2023-03-06T03:10:10.411Z,96.85
2023-03-06T03:12:37.300Z,95.47
2023-03-06T03:15:04.764Z,94.82
2023-03-06T03:17:36.740Z,96.53
2023-03-06T03:22:31.492Z,96.60
2023-03-06T03:24:58.282Z,95.95
2023-03-06T03:27:25.282Z,95.65
2023-03-06T03:29:52.337Z,95.32
2023-03-06T03:32:19.176Z,96.30
2023-03-06T03:34:47.773Z,95.70
2023-03-06T03:37:14.604Z,95.78
2023-03-06T03:39:42.786Z,95.30
2023-03-06T03:42:10.675Z,95.90
2023-03-06T03:44:37.519Z,95.93
2023-03-06T03:47:05.209Z,96.40
2023-03-06T03:49:32.124Z,96.00
2023-03-06T03:52:01.678Z,95.82
2023-03-06T03:54:31.333Z,96.18
2023-03-06T03:56:58.436Z,95.82
2023-03-06T03:59:30.359Z,95.80
2023-03-06T04:02:16.033Z,95.90
2023-03-06T04:04:51.292Z,95.68
2023-03-06T04:07:19.687Z,95.32
2023-03-06T04:09:47.363Z,95.35
2023-03-06T04:12:14.337Z,95.97
2023-03-06T04:14:42.081Z,95.22
2023-03-06T04:17:08.953Z,96.30
2023-03-06T04:19:35.734Z,96.32
2023-03-06T04:22:02.601Z,95.95
2023-03-06T04:24:33.158Z,96.85
2023-03-06T04:27:00.492Z,96.68
2023-03-06T04:29:27.369Z,96.25
2023-03-06T04:31:54.290Z,96.57
2023-03-06T04:34:21.322Z,96.68
2023-03-06T04:36:48.534Z,97.25
2023-03-06T04:39:17.228Z,96.57
2023-03-06T04:41:45.497Z,96.75
2023-03-06T04:44:12.416Z,97.88
2023-03-06T04:46:39.214Z,96.40
2023-03-06T04:49:07.464Z,96.90
2023-03-06T04:51:36.809Z,96.22
2023-03-06T04:54:04.085Z,97.00
2023-03-06T04:56:31.026Z,96.95
2023-03-06T04:58:59.288Z,97.72
2023-03-06T05:01:26.126Z,96.50
2023-03-06T05:03:53.079Z,97.15
2023-03-06T05:06:19.842Z,98.10
2023-03-06T05:08:47.443Z,96.30
2023-03-06T05:11:14.308Z,97.55
2023-03-06T05:13:41.191Z,97.85
2023-03-06T05:16:09.714Z,96.93
2023-03-06T05:18:37.145Z,96.93
2023-03-06T05:21:04.933Z,98.05
2023-03-06T05:23:33.314Z,98.50
2023-03-06T05:26:00.497Z,98.07
2023-03-06T05:28:28.650Z,97.57
2023-03-06T05:30:55.807Z,98.93
2023-03-06T05:33:23.960Z,100.63
2023-03-06T05:35:50.794Z,97.15
2023-03-06T05:38:17.633Z,99.20
2023-03-06T05:40:45.323Z,97.25
2023-03-06T05:43:12.504Z,98.43
2023-03-06T05:45:40.612Z,97.35
2023-03-06T05:48:08.294Z,98.00
2023-03-06T05:50:36.520Z,97.50
2023-03-06T05:53:03.839Z,97.35
2023-03-06T05:55:30.662Z,96.78
2023-03-06T05:57:57.516Z,96.65
2023-03-06T06:00:24.918Z,97.43
2023-03-06T06:02:51.784Z,97.78
2023-03-06T06:05:18.620Z,100.10
2023-03-06T06:07:46.848Z,97.07
2023-03-06T06:10:13.701Z,97.55
2023-03-06T06:12:40.858Z,100.07
2023-03-06T06:15:08.614Z,98.40
2023-03-06T06:17:35.636Z,97.85
2023-03-06T06:20:02.462Z,98.10
2023-03-06T06:22:29.526Z,98.28
2023-03-06T06:24:57.965Z,97.72
2023-03-06T06:27:24.735Z,97.78
2023-03-06T06:29:52.680Z,98.00
2023-03-06T06:32:19.752Z,97.97
2023-03-06T06:34:46.595Z,98.93
2023-03-06T06:37:13.481Z,98.38
2023-03-06T06:39:40.509Z,97.65
2023-03-06T06:42:29.859Z,99.03
2023-03-06T06:44:56.876Z,98.10
2023-03-06T06:47:25.336Z,98.30
2023-03-06T06:49:53.916Z,98.75
2023-03-06T06:52:20.803Z,97.82
2023-03-06T06:54:47.678Z,98.85
2023-03-06T06:57:16.524Z,99.15
2023-03-06T06:59:43.364Z,98.57
2023-03-06T07:02:10.927Z,98.68
2023-03-06T07:04:42.401Z,99.10
2023-03-06T07:07:13.530Z,98.85
2023-03-06T07:09:40.371Z,99.63
2023-03-06T07:12:07.993Z,97.95
2023-03-06T07:14:36.442Z,98.25
2023-03-06T07:17:03.523Z,99.22
2023-03-06T07:19:30.671Z,98.07
2023-03-06T07:21:57.808Z,98.13
2023-03-06T07:24:24.820Z,98.68
2023-03-06T07:26:51.887Z,99.20
2023-03-06T07:29:18.997Z,98.57
2023-03-06T07:31:47.292Z,98.47
2023-03-06T07:34:14.953Z,97.38
2023-03-06T07:36:42.136Z,98.15
2023-03-06T07:39:09.719Z,99.43
2023-03-06T07:41:36.728Z,100.50
2023-03-06T07:44:03.609Z,98.47
2023-03-06T07:46:30.589Z,99.32
2023-03-06T07:48:58.871Z,96.97
2023-03-06T07:51:25.784Z,97.40
2023-03-06T07:53:52.598Z,97.43
2023-03-06T07:56:19.555Z,98.10
2023-03-06T07:58:47.216Z,97.97
2023-03-06T08:01:16.287Z,96.75
2023-03-06T08:03:43.477Z,97.95
2023-03-06T08:06:13.671Z,96.78
2023-03-06T08:08:42.149Z,97.30
2023-03-06T08:11:11.372Z,96.97
2023-03-06T08:13:38.655Z,97.25
2023-03-06T08:16:06.597Z,97.45
2023-03-06T08:18:34.064Z,97.43
2023-03-06T08:21:02.769Z,98.35
2023-03-06T08:23:31.310Z,98.72
2023-03-06T08:25:58.691Z,97.43
2023-03-06T08:28:25.673Z,97.15
2023-03-06T08:30:52.576Z,97.15
2023-03-06T08:33:19.380Z,97.88
2023-03-06T08:35:46.149Z,97.28
2023-03-06T08:38:13.558Z,100.05
2023-03-06T08:40:41.913Z,97.68
2023-03-06T08:43:09.316Z,97.68
2023-03-06T08:45:36.382Z,97.72
2023-03-06T08:48:03.419Z,97.63
2023-03-06T08:50:30.218Z,98.32
2023-03-06T08:52:57.048Z,97.82
2023-03-06T08:55:23.928Z,97.80
2023-03-06T08:57:52.090Z,97.97
2023-03-06T09:00:19.707Z,97.68
2023-03-06T09:02:46.549Z,97.85
2023-03-06T09:05:13.347Z,97.80
2023-03-06T09:07:40.298Z,98.07
2023-03-06T09:10:08.489Z,102.45
2023-03-06T09:12:48.824Z,99.55
2023-03-06T09:17:44.914Z,97.68
2023-03-06T09:20:12.914Z,97.95
2023-03-06T09:22:42.385Z,98.40
2023-03-06T09:25:10.514Z,98.47
2023-03-06T09:27:39.601Z,98.82
2023-03-06T09:30:07.903Z,98.47
2023-03-06T09:32:36.166Z,97.88
2023-03-06T09:35:03.379Z,97.95
2023-03-06T09:37:30.593Z,98.35
2023-03-06T09:39:57.798Z,97.82
2023-03-06T09:42:25.072Z,99.28
2023-03-06T09:44:55.244Z,97.88
2023-03-06T09:47:57.232Z,98.43
2023-03-06T09:50:32.413Z,99.05
2023-03-06T09:53:15.353Z,98.60
2023-03-06T09:55:44.232Z,98.95
2023-03-06T09:58:16.702Z,98.65
2023-03-06T10:00:59.622Z,99.60
2023-03-06T10:03:32.440Z,98.55
2023-03-06T10:06:04.093Z,99.30
2023-03-06T10:08:38.123Z,98.68
2023-03-06T10:11:08.757Z,98.82
2023-03-06T10:13:40.146Z,99.40
2023-03-06T10:16:20.080Z,99.28
2023-03-06T10:18:48.279Z,99.10
2023-03-06T10:21:27.210Z,99.30
2023-03-06T10:23:58.395Z,99.57
2023-03-06T10:26:26.840Z,99.25
2023-03-06T10:29:08.987Z,98.22
2023-03-06T10:31:38.633Z,97.68
2023-03-06T10:34:20.419Z,98.35
2023-03-06T10:36:47.210Z,99.28
2023-03-06T10:39:16.557Z,99.60
2023-03-06T10:41:45.357Z,99.40
2023-03-06T10:44:24.094Z,98.38
2023-03-06T10:46:53.289Z,98.80
2023-03-06T10:49:30.497Z,99.90
2023-03-06T10:52:00.358Z,98.78
2023-03-06T10:54:31.992Z,98.93
2023-03-06T10:57:16.885Z,99.30
2023-03-06T10:59:52.340Z,98.82
2023-03-06T11:02:27.397Z,99.28
2023-03-06T11:04:58.206Z,99.85
2023-03-06T11:07:26.188Z,99.45
2023-03-06T11:10:16.647Z,100.65
2023-03-06T11:12:44.002Z,99.72
2023-03-06T11:15:22.979Z,100.18
2023-03-06T11:17:53.839Z,99.35
2023-03-06T11:20:24.791Z,100.40
2023-03-06T11:22:56.143Z,100.22
2023-03-06T11:25:28.302Z,100.30
2023-03-06T11:28:00.197Z,100.43
2023-03-06T11:30:32.501Z,99.80
2023-03-06T11:33:03.064Z,100.90
2023-03-06T11:35:35.802Z,100.33
2023-03-06T11:38:07.110Z,100.03
2023-03-06T11:40:41.876Z,100.55
2023-03-06T11:43:18.917Z,101.93
2023-03-06T11:45:48.861Z,100.57
2023-03-06T11:48:24.753Z,101.93
2023-03-06T11:50:55.454Z,101.43
2023-03-06T11:53:26.437Z,100.38
2023-03-06T11:56:02.288Z,102.20
2023-03-06T11:58:47.059Z,100.40
2023-03-06T12:01:22.727Z,100.70
2023-03-06T12:03:58.615Z,100.38
2023-03-06T12:06:41.533Z,101.18
2023-03-06T12:09:29.202Z,101.18
2023-03-06T12:12:19.502Z,100.45
2023-03-06T12:15:08.576Z,101.68
2023-03-06T12:17:53.106Z,101.20
2023-03-06T12:20:33.547Z,102.95
2023-03-06T12:23:15.450Z,100.85
2023-03-06T12:25:45.193Z,101.07
2023-03-06T12:28:40.131Z,101.85
2023-03-06T12:31:24.568Z,101.13
2023-03-06T12:34:01.304Z,100.45
2023-03-06T12:36:38.846Z,101.25
2023-03-06T12:39:10.601Z,101.35
2023-03-06T12:41:48.064Z,102.05
2023-03-06T12:44:30.228Z,101.78
2023-03-06T12:47:01.663Z,101.97
2023-03-06T12:52:01.339Z,102.70
2023-03-06T12:54:31.478Z,101.13
2023-03-06T12:57:00.626Z,100.80
2023-03-06T12:59:44.319Z,101.35
2023-03-06T13:02:44.366Z,102.20
2023-03-06T13:05:47.244Z,101.60
2023-03-06T13:08:54.302Z,101.75
2023-03-06T13:12:08.060Z,102.35
2023-03-06T13:14:56.136Z,101.63
2023-03-06T13:17:37.389Z,102.53
2023-03-06T13:20:35.710Z,101.82
2023-03-06T13:23:40.971Z,101.00
2023-03-06T13:26:10.858Z,101.35
2023-03-06T13:28:49.967Z,102.95
2023-03-06T13:31:28.303Z,101.90
2023-03-06T13:33:58.545Z,102.93
2023-03-06T13:36:28.555Z,103.68
2023-03-06T13:39:06.437Z,103.05
2023-03-06T13:41:58.704Z,102.35
2023-03-06T13:44:48.769Z,102.55
2023-03-06T13:47:32.239Z,103.63
2023-03-06T13:49:59.903Z,105.10
2023-03-06T13:52:38.285Z,102.20
2023-03-06T13:55:18.679Z,103.07
2023-03-06T13:58:01.110Z,103.03
2023-03-06T14:01:18.437Z,102.78
2023-03-06T14:04:20.954Z,103.78
2023-03-06T14:06:52.072Z,103.35
2023-03-06T14:09:32.596Z,103.75
2023-03-06T14:12:04.901Z,102.65
2023-03-06T14:14:41.700Z,103.03
2023-03-06T14:17:18.761Z,103.72
2023-03-06T14:19:47.610Z,102.88
2023-03-06T14:22:17.861Z,102.50
2023-03-06T14:24:54.304Z,101.95
2023-03-06T14:27:21.458Z,101.68
2023-03-06T14:29:49.778Z,102.03
2023-03-06T14:32:21.519Z,103.25
2023-03-06T14:34:49.781Z,102.45
2023-03-06T14:37:20.783Z,102.97
2023-03-06T14:39:47.870Z,105.43
2023-03-06T14:42:19.527Z,102.40
2023-03-06T14:44:47.359Z,103.72
2023-03-06T14:47:25.015Z,104.00
2023-03-06T14:50:24.250Z,105.65
2023-03-06T14:52:55.530Z,104.45
2023-03-06T14:55:24.491Z,103.28
2023-03-06T14:57:56.892Z,103.15
2023-03-06T15:00:36.270Z,104.07
2023-03-06T15:03:06.757Z,103.90
2023-03-06T15:05:35.375Z,104.18
2023-03-06T15:08:08.440Z,104.15
2023-03-06T15:10:36.742Z,104.75
2023-03-06T15:13:13.981Z,104.03
2023-03-06T15:15:40.841Z,103.75
2023-03-06T15:18:28.671Z,104.53
2023-03-06T15:21:11.601Z,103.97
2023-03-06T15:23:40.913Z,105.97
2023-03-06T15:26:29.551Z,104.28
2023-03-06T15:29:20.299Z,104.88
2023-03-06T15:31:47.310Z,105.45
2023-03-06T15:34:18.509Z,105.80
2023-03-06T15:36:48.557Z,104.90
2023-03-06T15:39:30.160Z,105.47
2023-03-06T15:44:24.443Z,105.28
2023-03-06T15:46:56.299Z,105.90
2023-03-06T15:49:26.477Z,105.55
2023-03-06T15:51:55.043Z,105.35
2023-03-06T15:54:21.848Z,105.93
2023-03-06T15:56:50.107Z,106.65
2023-03-06T15:59:22.299Z,106.22
2023-03-06T16:01:49.838Z,106.63
2023-03-06T16:04:17.142Z,107.22
2023-03-06T16:06:45.831Z,107.75
2023-03-06T16:09:14.564Z,107.25
2023-03-06T16:11:47.304Z,107.63
2023-03-06T16:14:20.089Z,106.68
2023-03-06T16:16:49.466Z,108.18
2023-03-06T16:19:25.910Z,106.95
2023-03-06T16:21:53.643Z,106.47
2023-03-06T16:24:22.004Z,108.32
2023-03-06T16:26:51.195Z,106.13
2023-03-06T16:29:19.633Z,107.18
2023-03-06T16:31:46.776Z,104.60
2023-03-06T16:34:13.792Z,105.70
2023-03-06T16:36:41.461Z,106.07
2023-03-06T16:39:13.112Z,107.38
2023-03-06T16:41:41.411Z,107.10
2023-03-06T16:44:10.103Z,105.88
2023-03-06T16:46:39.850Z,105.90
2023-03-06T16:49:07.209Z,106.97
2023-03-06T16:51:34.239Z,108.50
2023-03-06T16:54:01.094Z,108.43
2023-03-06T16:56:27.880Z,108.45
2023-03-06T16:58:56.094Z,111.00
2023-03-06T17:01:23.076Z,109.63
2023-03-06T17:03:49.965Z,108.85
2023-03-06T17:06:18.355Z,109.10
2023-03-06T17:08:46.256Z,108.90
2023-03-06T17:11:13.679Z,109.70
2023-03-06T17:13:41.012Z,110.55
2023-03-06T17:16:16.126Z,109.65
2023-03-06T17:18:44.161Z,109.53
2023-03-06T17:21:11.570Z,108.85
2023-03-06T17:23:38.729Z,109.45
2023-03-06T17:26:08.411Z,110.05
2023-03-06T17:28:36.384Z,110.30
2023-03-06T17:31:10.433Z,110.72
2023-03-06T17:33:38.930Z,111.00
2023-03-06T17:36:06.656Z,110.72
2023-03-06T17:38:33.521Z,110.40
2023-03-06T17:41:03.647Z,110.85
2023-03-06T17:43:31.097Z,111.15
2023-03-06T17:46:01.750Z,110.72
2023-03-06T17:48:28.548Z,111.75
2023-03-06T17:50:57.193Z,108.47
2023-03-06T17:53:24.006Z,109.30
2023-03-06T17:55:50.959Z,107.00
2023-03-06T17:58:17.904Z,108.40
2023-03-06T18:00:45.864Z,109.15
2023-03-06T18:03:12.766Z,109.60
2023-03-06T18:05:39.594Z,110.43
2023-03-06T18:08:10.204Z,110.80
2023-03-06T18:10:41.394Z,110.22
2023-03-06T18:13:09.305Z,111.50
2023-03-06T18:15:38.772Z,109.95
2023-03-06T18:18:05.910Z,110.18
2023-03-06T18:20:33.046Z,110.15
2023-03-06T18:23:03.498Z,110.95
2023-03-06T18:25:32.438Z,111.70
2023-03-06T18:27:59.381Z,110.70
2023-03-06T18:30:26.294Z,111.53
2023-03-06T18:32:53.492Z,110.32
2023-03-06T18:35:20.681Z,110.63
2023-03-06T18:37:47.558Z,110.28
2023-03-06T18:40:15.105Z,109.75
2023-03-06T18:42:43.467Z,113.43
2023-03-06T18:45:11.301Z,110.95
2023-03-06T18:47:38.273Z,110.68
2023-03-06T18:50:06.204Z,109.72
2023-03-06T18:52:33.732Z,109.18
2023-03-06T18:55:00.571Z,109.25
2023-03-06T18:57:29.286Z,109.25
2023-03-06T18:59:58.458Z,110.75
2023-03-06T19:02:26.234Z,108.95
2023-03-06T19:04:53.130Z,110.32
2023-03-06T19:07:20.140Z,111.20
2023-03-06T19:09:48.220Z,110.70
2023-03-06T19:12:15.581Z,109.75
2023-03-06T19:14:42.350Z,109.63
2023-03-06T19:17:10.532Z,109.82
2023-03-06T19:19:37.343Z,111.38
2023-03-06T19:22:04.302Z,111.18
2023-03-06T19:24:31.132Z,111.50
2023-03-06T19:26:57.963Z,111.07
2023-03-06T19:29:24.788Z,111.75
2023-03-06T19:31:52.228Z,111.43
2023-03-06T19:34:20.465Z,111.72
2023-03-06T19:36:49.870Z,111.00
2023-03-06T19:39:16.620Z,110.47
2023-03-06T19:41:43.504Z,111.55
2023-03-06T19:44:12.263Z,111.80
2023-03-06T19:46:40.802Z,110.70
2023-03-06T19:49:12.095Z,110.82
2023-03-06T19:54:07.008Z,110.30
2023-03-06T19:56:33.859Z,110.63
2023-03-06T19:59:00.699Z,111.43
2023-03-06T20:01:28.649Z,111.20
2023-03-06T20:03:58.897Z,111.40
2023-03-06T20:06:28.092Z,111.53
2023-03-06T20:08:56.291Z,113.22
2023-03-06T20:11:25.321Z,111.78
2023-03-06T20:13:52.652Z,111.05
2023-03-06T20:16:19.702Z,113.97
2023-03-06T20:18:46.746Z,111.63
2023-03-06T20:21:14.184Z,112.95
2023-03-06T20:23:41.040Z,113.18
2023-03-06T20:26:12.178Z,113.38
2023-03-06T20:28:39.657Z,113.25
2023-03-06T20:31:07.557Z,113.10
2023-03-06T20:33:34.542Z,113.30
2023-03-06T20:36:01.427Z,115.30
2023-03-06T20:38:28.316Z,114.05
2023-03-06T20:40:56.193Z,113.53
2023-03-06T20:43:24.476Z,114.38
2023-03-06T20:45:58.769Z,113.40
2023-03-06T20:48:25.690Z,114.57
2023-03-06T20:51:00.197Z,114.18
2023-03-06T20:53:27.377Z,113.20
2023-03-06T20:55:54.241Z,112.90
2023-03-06T20:58:23.299Z,113.32
2023-03-06T21:00:51.870Z,112.05
2023-03-06T21:03:18.653Z,111.78
2023-03-06T21:05:46.188Z,112.85
2023-03-06T21:08:12.969Z,110.93
2023-03-06T21:10:39.806Z,110.78
2023-03-06T21:13:06.641Z,110.55
2023-03-06T21:15:33.655Z,110.50
2023-03-06T21:18:01.898Z,110.47
2023-03-06T21:20:28.653Z,111.38
2023-03-06T21:22:56.410Z,110.25
2023-03-06T21:25:23.227Z,112.63
2023-03-06T21:27:50.162Z,113.15
2023-03-06T21:30:17.309Z,110.93
2023-03-06T21:32:44.208Z,112.40
2023-03-06T21:35:12.502Z,110.38
2023-03-06T21:37:39.425Z,110.55
2023-03-06T21:40:07.740Z,109.93
2023-03-06T21:42:37.879Z,110.38
2023-03-06T21:45:05.757Z,111.22
2023-03-06T21:47:37.775Z,109.88
2023-03-06T21:50:05.402Z,110.05
2023-03-06T21:52:33.551Z,110.80
2023-03-06T21:55:00.396Z,110.05
2023-03-06T21:57:27.241Z,108.93
2023-03-06T21:59:54.083Z,109.25
2023-03-06T22:02:20.979Z,109.43
2023-03-06T22:04:50.143Z,108.07
2023-03-06T22:07:17.153Z,108.10
2023-03-06T22:09:45.533Z,106.70
2023-03-06T22:12:12.534Z,106.97
2023-03-06T22:14:39.514Z,108.00
2023-03-06T22:17:06.283Z,107.93
2023-03-06T22:19:33.150Z,107.50
2023-03-06T22:22:00.024Z,109.25
2023-03-06T22:24:26.761Z,107.68
2023-03-06T22:26:55.086Z,105.90
2023-03-06T22:29:22.003Z,107.47
2023-03-06T22:31:48.840Z,106.95
2023-03-06T22:34:15.689Z,107.00
2023-03-06T22:36:42.587Z,106.20
2023-03-06T22:39:12.789Z,107.50
2023-03-06T22:41:40.177Z,106.50
2023-03-06T22:44:14.405Z,107.13
2023-03-06T22:46:41.894Z,106.75
2023-03-06T22:49:11.769Z,106.30
2023-03-06T22:51:39.254Z,106.82
2023-03-06T22:54:07.062Z,106.22
2023-03-06T22:56:34.112Z,106.40
2023-03-06T22:59:01.220Z,106.45
2023-03-06T23:01:31.435Z,108.47
2023-03-06T23:04:00.189Z,105.97
2023-03-06T23:06:29.589Z,106.50
2023-03-06T23:08:58.132Z,108.25
2023-03-06T23:11:27.793Z,105.43
2023-03-06T23:14:14.283Z,104.65
2023-03-06T23:17:00.954Z,105.53
2023-03-06T23:19:49.364Z,105.30
2023-03-06T23:22:34.459Z,106.20
2023-03-06T23:25:19.844Z,104.28
2023-03-06T23:27:46.711Z,105.35
2023-03-06T23:30:14.243Z,105.82
2023-03-06T23:32:44.827Z,104.97
2023-03-06T23:35:12.648Z,104.03
2023-03-06T23:37:39.496Z,103.53
2023-03-06T23:40:09.250Z,104.57
2023-03-06T23:42:36.183Z,104.63
2023-03-06T23:45:03.291Z,103.72
2023-03-06T23:47:32.078Z,103.25
2023-03-06T23:50:00.274Z,104.57
2023-03-06T23:52:27.114Z,103.07
2023-03-06T23:54:54.129Z,103.43
2023-03-06T23:57:21.028Z,103.68
2023-03-06T23:59:47.832Z,102.55
